aviador You're here:

KEHR Decoded Metar

HENDERSON CITY in KY, USA
Report Time2018-02-22 05:56:00
UTC Time2018-02-22 06:43:31
Flight Rules ifr IFR
Wind040° at 13 kt
W.Decomp.*RWY 09: 8.5 kt HW 9.8 kt LCW
W.Rank040° ranks 16
Current wind is above 040° avg. (6.5)
Visibility9656 m
Phenomena:Rain
Mist
Clouds:Overcast 006 Hf
Expected CloudBase > 400 ft AGL from Temp-Dew spread
Ceiling600 ft
Temp05°C (ISA -9)
Dew Point04°C (93% RH)
AAT-1.0°C
QNH1028 hPa
Density Alt-1,129 ft
Elevation384 ft
Report Wrong Elevation
Raw Report
METAR KEHR 220556Z AUTO 04013KT 6SM RA BR OVC006 05/04 A3036 RMK AO2
CIG 006V010 SLP294 P0017 60050 T00500044 10056 20050
402170033 56026=

Extra information for KEHR:More info

Metar Taf Metar & Taf Last 4 Metars F.Rules Stats Wind Profile Meteogram Temp Stats Airport Information Weather charts Add Link Nearby VenuesMetar ALERT Operation Metar Decoded Social comments

AIRNAV info for KEHR